Time;durP1;ratioP1;P1;durP2;ratioP2;P2;SDS_P1;SDS_P2;PMS_P1;PMS_P2;Temp;Humidity;BMP_temperature;BMP_pressure;BME280_temperature;BME280_humidity;BME280_pressure;Samples;Min_cycle;Max_cycle;Signal;HPM_P1;HPM_P2
2019/12/11 17:00:46;;;;;;;6.9;3.2;;;;;;;22.26;63.87012;952.4832;;;;
2019/12/11 17:03:11;;;;;;;7.8;3.1;;;;;;;22.12;46.84668;952.595;;;;
2019/12/11 17:06:06;;;;;;;6.7;2.9;;;;;;;22.32;45.6748;952.5468;;;;
2019/12/11 17:08:30;;;;;;;6.4;3;;;;;;;22.48;45.29492;952.5878;;;;
2019/12/11 17:10:55;;;;;;;5.4;2.7;;;;;;;22.58;45.04004;952.613;;;;
2019/12/11 17:13:20;;;;;;;6.6;2.7;;;;;;;22.65;44.87793;952.5385;;;;
2019/12/11 17:15:45;;;;;;;6.9;2.8;;;;;;;22.72;44.77734;952.5516;;;;
2019/12/11 17:18:10;;;;;;;6.7;2.7;;;;;;;22.78;44.66309;952.5865;;;;
2019/12/11 17:20:36;;;;;;;5.3;2.5;;;;;;;22.82;44.60547;952.5122;;;;
2019/12/11 17:23:00;;;;;;;4.7;2.6;;;;;;;22.87;44.5625;952.5918;;;;
2019/12/11 17:25:27;;;;;;;4.9;2.5;;;;;;;22.91;44.51953;952.5704;;;;
2019/12/11 17:28:00;;;;;;;5.6;2.4;;;;;;;22.95;44.47461;952.5933;;;;
2019/12/11 17:30:16;;;;;;;4.8;2.6;;;;;;;22.98;44.44141;952.5831;;;;
2019/12/11 17:32:43;;;;;;;5.7;2.7;;;;;;;23;44.41992;952.521;;;;
2019/12/11 17:35:06;;;;;;;5.3;2.5;;;;;;;23.03;44.39844;952.4458;;;;
2019/12/11 17:37:31;;;;;;;4;2.4;;;;;;;23.07;44.36523;952.3986;;;;
2019/12/11 17:39:56;;;;;;;6.5;2.5;;;;;;;23.1;44.32031;952.4327;;;;
2019/12/11 17:42:21;;;;;;;4.5;2.3;;;;;;;23.12;44.33496;952.5038;;;;
2019/12/11 17:44:46;;;;;;;7.3;2.5;;;;;;;23.14;44.33691;952.4586;;;;
2019/12/11 17:47:11;;;;;;;4.4;2.5;;;;;;;23.16;44.32715;952.4824;;;;
2019/12/11 17:49:36;;;;;;;3.6;2.4;;;;;;;23.18;44.32813;952.4091;;;;
2019/12/11 17:52:01;;;;;;;5.9;2.3;;;;;;;23.2;44.30566;952.4295;;;;
2019/12/11 17:54:26;;;;;;;5;2.3;;;;;;;23.21;44.30762;952.5344;;;;
2019/12/11 17:56:51;;;;;;;4;2.2;;;;;;;23.22;44.32129;952.5912;;;;
2019/12/11 17:59:16;;;;;;;5;2.2;;;;;;;23.24;44.29883;952.5619;;;;
2019/12/11 18:01:47;;;;;;;3.8;2.4;;;;;;;23.23;44.21289;952.5361;;;;
2019/12/11 18:04:07;;;;;;;5.1;2.6;;;;;;;23.22;44.17578;952.6194;;;;
2019/12/11 18:06:32;;;;;;;4.7;2.4;;;;;;;23.21;44.21094;952.6295;;;;
2019/12/11 18:08:57;;;;;;;5.2;2.4;;;;;;;23.21;44.24805;952.5831;;;;
2019/12/11 18:11:22;;;;;;;6.6;2.7;;;;;;;23.21;44.27246;952.6135;;;;
2019/12/11 18:13:47;;;;;;;5;2.2;;;;;;;23.21;44.2959;952.6245;;;;
2019/12/11 18:16:12;;;;;;;5.9;2.2;;;;;;;23.18;44.3291;952.5994;;;;
2019/12/11 18:18:37;;;;;;;3.9;2.2;;;;;;;23.16;44.40039;952.613;;;;
2019/12/11 18:21:02;;;;;;;5.1;2.3;;;;;;;23.16;44.41113;952.6136;;;;
2019/12/11 18:23:27;;;;;;;4.8;2.1;;;;;;;23.13;44.46973;952.6508;;;;
2019/12/11 18:25:52;;;;;;;3.7;2.1;;;;;;;23.13;44.49219;952.7173;;;;
2019/12/11 18:28:17;;;;;;;5.1;2.3;;;;;;;23.11;44.50293;952.65;;;;
2019/12/11 18:30:42;;;;;;;4.9;2.6;;;;;;;23.08;44.54785;952.7106;;;;
2019/12/11 18:33:07;;;;;;;5.7;2.1;;;;;;;23.07;44.57129;952.7503;;;;
2019/12/11 18:35:32;;;;;;;5.3;2.4;;;;;;;23.05;44.61816;952.7047;;;;
2019/12/11 18:37:57;;;;;;;4.9;2.2;;;;;;;23.05;44.62988;952.7379;;;;
2019/12/11 18:40:23;;;;;;;3.6;2.1;;;;;;;23.04;44.66406;952.6905;;;;
2019/12/11 18:42:48;;;;;;;4.7;2.1;;;;;;;23.03;44.66309;952.6887;;;;
2019/12/11 18:45:13;;;;;;;4.7;2.1;;;;;;;23.02;44.69824;952.7099;;;;
2019/12/11 18:47:38;;;;;;;3;2;;;;;;;23.04;44.63965;952.6635;;;;
2019/12/11 18:50:03;;;;;;;3.6;2.2;;;;;;;23.02;44.6875;952.925;;;;
2019/12/11 18:52:28;;;;;;;2.8;1.9;;;;;;;23.02;44.6875;952.8466;;;;
2019/12/11 18:54:53;;;;;;;4.9;2;;;;;;;23.03;44.65137;952.8801;;;;
2019/12/11 18:58:07;;;;;;;3.3;1.9;;;;;;;23;44.7207;952.9232;;;;
2019/12/11 18:59:46;;;;;;;3.5;2;;;;;;;22.98;44.7666;952.8447;;;;
2019/12/11 19:02:08;;;;;;;3.9;2.1;;;;;;;22.98;44.76758;952.8641;;;;
2019/12/11 19:04:33;;;;;;;3.5;2;;;;;;;22.96;44.79004;952.8798;;;;
2019/12/11 19:06:58;;;;;;;5.8;2.2;;;;;;;22.95;44.54688;952.9196;;;;
2019/12/11 19:09:23;;;;;;;5.4;2.1;;;;;;;22.89;45.85449;952.8998;;;;
2019/12/11 19:11:48;;;;;;;5.1;2.3;;;;;;;22.91;44.30176;952.9077;;;;
2019/12/11 19:14:14;;;;;;;3.8;2.2;;;;;;;22.88;44.33496;952.9263;;;;
2019/12/11 19:16:39;;;;;;;5.5;2.1;;;;;;;22.86;44.46582;952.8524;;;;
2019/12/11 19:19:04;;;;;;;4.7;2.3;;;;;;;22.85;44.57324;952.8608;;;;
2019/12/11 19:21:29;;;;;;;4.5;2.2;;;;;;;22.84;44.67969;952.8182;;;;
2019/12/11 19:23:54;;;;;;;3.3;2.1;;;;;;;22.83;44.71582;952.8017;;;;
2019/12/11 19:26:19;;;;;;;4.7;2.1;;;;;;;22.84;44.71582;952.7523;;;;
2019/12/11 19:28:44;;;;;;;4.2;2.1;;;;;;;22.83;44.76465;952.7126;;;;
2019/12/11 19:31:09;;;;;;;5;2.1;;;;;;;22.82;44.81055;952.7128;;;;
2019/12/11 19:33:34;;;;;;;3.9;2.2;;;;;;;22.8;44.8457;952.7145;;;;
2019/12/11 19:35:59;;;;;;;4;1.9;;;;;;;22.76;44.90137;952.6922;;;;
2019/12/11 19:38:26;;;;;;;5.5;2;;;;;;;22.83;44.76367;952.7199;;;;
2019/12/11 19:40:49;;;;;;;5;2.1;;;;;;;22.86;44.64648;952.6716;;;;
2019/12/11 19:43:15;;;;;;;4.1;1.9;;;;;;;22.84;44.67969;952.6556;;;;
2019/12/11 19:46:21;;;;;;;4.1;1.8;;;;;;;22.89;44.56445;952.6689;;;;
2019/12/11 19:48:46;;;;;;;3.6;1.8;;;;;;;22.9;44.54199;952.7375;;;;
2019/12/11 19:51:11;;;;;;;3.9;1.8;;;;;;;22.91;44.51953;952.7031;;;;
2019/12/11 19:53:36;;;;;;;3.5;1.8;;;;;;;22.9;44.5293;952.6165;;;;
2019/12/11 19:56:02;;;;;;;3.9;1.8;;;;;;;22.9;44.5293;952.5899;;;;
2019/12/11 19:58:27;;;;;;;3.3;1.9;;;;;;;22.92;44.49609;952.5503;;;;
2019/12/11 20:00:52;;;;;;;4.1;2.2;;;;;;;22.9;44.51855;952.5158;;;;
2019/12/11 20:03:17;;;;;;;4;2.1;;;;;;;22.85;44.5127;952.5603;;;;
2019/12/11 20:05:42;;;;;;;2.7;1.8;;;;;;;22.87;44.52734;952.4789;;;;
2019/12/11 20:08:07;;;;;;;4.4;2;;;;;;;22.93;44.43652;952.4802;;;;
2019/12/11 20:10:32;;;;;;;3.9;1.7;;;;;;;22.88;44.67285;952.4539;;;;
2019/12/11 20:12:57;;;;;;;3.3;1.8;;;;;;;22.91;44.78418;952.405;;;;
2019/12/11 20:15:22;;;;;;;5.6;1.8;;;;;;;23.02;44.55371;952.3962;;;;
2019/12/11 20:17:47;;;;;;;4.4;1.8;;;;;;;23.1;44.44141;952.3933;;;;
2019/12/11 20:20:12;;;;;;;5.5;1.8;;;;;;;23.15;44.33789;952.3703;;;;
2019/12/11 20:22:37;;;;;;;3.5;1.8;;;;;;;23.21;44.26074;952.4392;;;;
2019/12/11 20:25:03;;;;;;;3;1.6;;;;;;;23.28;44.19336;952.4004;;;;
2019/12/11 20:27:47;;;;;;;3.3;1.8;;;;;;;23.33;44.15137;952.3344;;;;
2019/12/11 20:29:57;;;;;;;2.1;1.7;;;;;;;23.39;44.0957;952.319;;;;
2019/12/11 20:32:25;;;;;;;3.2;1.7;;;;;;;23.45;44.06641;952.3995;;;;
2019/12/11 20:34:46;;;;;;;3.6;1.8;;;;;;;23.52;44.02441;952.3781;;;;
2019/12/11 20:37:08;;;;;;;3.1;1.8;;;;;;;23.57;44.0166;952.3365;;;;
2019/12/11 20:39:33;;;;;;;2.8;1.7;;;;;;;23.61;43.98633;952.3705;;;;
2019/12/11 20:41:58;;;;;;;3.1;1.9;;;;;;;23.65;43.96484;952.3611;;;;
2019/12/11 20:44:23;;;;;;;2.7;1.7;;;;;;;23.71;43.93555;952.3736;;;;
2019/12/11 20:46:48;;;;;;;3;1.7;;;;;;;23.73;43.9375;952.3624;;;;
2019/12/11 20:49:14;;;;;;;2.6;1.5;;;;;;;23.76;43.94043;952.4174;;;;
2019/12/11 20:51:38;;;;;;;3.1;1.6;;;;;;;23.79;43.93066;952.3914;;;;
2019/12/11 20:54:04;;;;;;;3.1;1.4;;;;;;;23.81;43.93262;952.3769;;;;
2019/12/11 20:56:29;;;;;;;3.4;1.5;;;;;;;23.97;44.18945;952.3792;;;;
2019/12/11 20:58:54;;;;;;;2.7;1.5;;;;;;;23.88;43.85449;952.3655;;;;
2019/12/11 21:01:19;;;;;;;5;1.7;;;;;;;23.83;43.98242;952.2992;;;;
2019/12/11 21:03:44;;;;;;;3.6;1.6;;;;;;;23.81;44.05371;952.2639;;;;
2019/12/11 21:06:09;;;;;;;3.3;1.6;;;;;;;23.8;44.10059;952.2286;;;;
2019/12/11 21:08:34;;;;;;;2.9;1.6;;;;;;;23.8;44.13672;952.2132;;;;
2019/12/11 21:10:59;;;;;;;2.2;1.5;;;;;;;23.8;44.14941;952.2181;;;;
2019/12/11 21:13:24;;;;;;;2.4;1.6;;;;;;;23.8;44.17285;952.2564;;;;
2019/12/11 21:15:50;;;;;;;2.3;1.4;;;;;;;23.8;44.16113;952.124;;;;
2019/12/11 21:18:15;;;;;;;2;1.4;;;;;;;23.81;44.17383;952.1238;;;;
2019/12/11 21:20:40;;;;;;;2.6;1.4;;;;;;;23.83;44.17578;952.1506;;;;
2019/12/11 21:23:05;;;;;;;3.1;1.4;;;;;;;23.82;44.1875;952.1121;;;;
2019/12/11 21:25:30;;;;;;;2.4;1.3;;;;;;;23.77;44.25488;952.1094;;;;
2019/12/11 21:27:55;;;;;;;3.1;1.4;;;;;;;23.77;44.29102;952.152;;;;
2019/12/11 21:30:21;;;;;;;3.3;1.5;;;;;;;23.75;44.2168;952.1252;;;;
2019/12/11 21:32:46;;;;;;;3.5;1.5;;;;;;;23.74;44.19141;952.1135;;;;
2019/12/11 21:35:11;;;;;;;2.8;1.4;;;;;;;23.73;44.19043;952.0983;;;;
2019/12/11 21:37:36;;;;;;;2.9;1.6;;;;;;;23.7;44.13867;952.0864;;;;
2019/12/11 21:40:01;;;;;;;3.8;1.6;;;;;;;23.73;44.09473;952.0965;;;;
2019/12/11 21:42:26;;;;;;;2;1.3;;;;;;;23.75;44.0957;952.1249;;;;
2019/12/11 21:44:51;;;;;;;3.4;1.4;;;;;;;23.77;44.09863;952.1094;;;;
2019/12/11 21:47:16;;;;;;;3;1.6;;;;;;;23.76;44.09668;952.1223;;;;
2019/12/11 21:49:41;;;;;;;2.8;1.5;;;;;;;23.77;44.11035;952.1227;;;;
2019/12/11 21:52:06;;;;;;;2.7;1.6;;;;;;;23.76;44.10938;952.1035;;;;
2019/12/11 21:54:31;;;;;;;4.2;1.4;;;;;;;23.74;44.15527;952.1245;;;;
2019/12/11 21:56:56;;;;;;;3.2;1.5;;;;;;;23.75;44.14355;952.0618;;;;
2019/12/11 21:59:21;;;;;;;2;1.4;;;;;;;23.74;44.16699;952.0586;;;;
2019/12/11 22:01:57;;;;;;;2.2;1.4;;;;;;;23.74;44.17969;952.0704;;;;
2019/12/11 22:04:12;;;;;;;2.9;1.4;;;;;;;23.73;44.19043;952.0046;;;;
2019/12/11 22:06:53;;;;;;;2.2;1.3;;;;;;;23.71;44.2373;952.0009;;;;
2019/12/11 22:09:08;;;;;;;2.8;1.4;;;;;;;23.71;44.22461;951.9975;;;;
2019/12/11 22:11:27;;;;;;;2.9;1.4;;;;;;;23.71;44.22461;951.9622;;;;
2019/12/11 22:13:52;;;;;;;2.4;1.3;;;;;;;23.7;44.23633;951.9113;;;;
2019/12/11 22:16:23;;;;;;;2.7;1.4;;;;;;;23.71;44.22461;951.9069;;;;
2019/12/11 22:18:42;;;;;;;2;1.4;;;;;;;23.68;44.25879;951.8923;;;;
2019/12/11 22:21:09;;;;;;;2.1;1.2;;;;;;;23.68;44.25879;951.8923;;;;
2019/12/11 22:23:33;;;;;;;2.4;1.4;;;;;;;23.68;44.24609;951.889;;;;
2019/12/11 22:25:58;;;;;;;2.2;1.3;;;;;;;23.68;44.25879;951.8519;;;;
2019/12/11 22:28:23;;;;;;;3.3;1.4;;;;;;;23.65;44.30371;951.8412;;;;
2019/12/11 22:30:48;;;;;;;2.2;1.1;;;;;;;23.66;44.26758;951.7873;;;;
2019/12/11 22:33:13;;;;;;;1.3;1.1;;;;;;;23.65;44.29199;951.7874;;;;
2019/12/11 22:35:38;;;;;;;2.1;1.4;;;;;;;23.64;44.31445;951.778;;;;
2019/12/11 22:38:03;;;;;;;2.1;1.4;;;;;;;23.64;44.31445;951.7598;;;;
2019/12/11 22:40:28;;;;;;;1.7;1.3;;;;;;;23.64;44.32617;951.7322;;;;
2019/12/11 22:42:53;;;;;;;2;1.2;;;;;;;23.62;44.34863;951.6937;;;;
2019/12/11 22:45:18;;;;;;;2.2;1.1;;;;;;;23.59;44.40723;951.7572;;;;
2019/12/11 22:47:43;;;;;;;3.1;1.2;;;;;;;23.57;44.46484;951.726;;;;
2019/12/11 22:50:09;;;;;;;2;1.4;;;;;;;23.56;44.4873;951.7382;;;;
2019/12/11 22:52:34;;;;;;;1.9;1.3;;;;;;;23.56;44.4873;951.6916;;;;
2019/12/11 22:54:59;;;;;;;1.5;1.1;;;;;;;23.54;44.52246;951.712;;;;
2019/12/11 22:57:24;;;;;;;2.1;1.3;;;;;;;23.54;44.50977;951.712;;;;
2019/12/11 22:59:49;;;;;;;2.1;1.3;;;;;;;23.53;44.54395;951.6843;;;;
2019/12/11 23:02:14;;;;;;;1.5;1.2;;;;;;;23.51;44.56738;951.6592;;;;
2019/12/11 23:04:39;;;;;;;2;1.1;;;;;;;23.52;44.53125;951.6983;;;;
2019/12/11 23:07:04;;;;;;;2.1;1.2;;;;;;;23.49;44.57715;951.6749;;;;
2019/12/11 23:09:29;;;;;;;2.3;1;;;;;;;23.47;44.62402;951.6895;;;;
2019/12/11 23:11:54;;;;;;;2;1;;;;;;;23.46;44.64746;951.6736;;;;
2019/12/11 23:14:22;;;;;;;2.2;1;;;;;;;23.46;44.63477;951.7355;;;;
2019/12/11 23:19:15;;;;;;;2.2;1.2;;;;;;;23.42;44.72656;951.6961;;;;
2019/12/11 23:21:35;;;;;;;1.4;1;;;;;;;23.43;44.71582;951.6839;;;;
2019/12/11 23:24:00;;;;;;;1.6;1.1;;;;;;;23.4;44.73633;951.6281;;;;
2019/12/11 23:26:25;;;;;;;1.8;1.1;;;;;;;23.4;44.7373;951.6021;;;;
2019/12/11 23:28:50;;;;;;;2.1;1.3;;;;;;;23.39;44.74805;951.6282;;;;
2019/12/11 23:31:15;;;;;;;2.4;1;;;;;;;23.38;44.77148;951.5747;;;;
2019/12/11 23:33:40;;;;;;;1.7;1.1;;;;;;;23.35;44.84082;951.622;;;;
2019/12/11 23:36:05;;;;;;;1.8;1.2;;;;;;;23.34;44.83984;951.635;;;;
2019/12/11 23:38:30;;;;;;;2.1;1.2;;;;;;;23.33;44.86328;951.6333;;;;
2019/12/11 23:40:55;;;;;;;2.8;1.3;;;;;;;23.32;44.84961;951.6618;;;;
2019/12/11 23:43:20;;;;;;;2.3;1.1;;;;;;;23.32;44.81348;951.6369;;;;
2019/12/11 23:45:46;;;;;;;2.1;1.1;;;;;;;23.29;44.83496;951.6144;;;;
2019/12/11 23:48:13;;;;;;;1.4;1.1;;;;;;;23.26;44.86816;951.642;;;;
2019/12/11 23:50:37;;;;;;;1.5;1.1;;;;;;;23.26;44.84375;951.5388;;;;
2019/12/11 23:53:01;;;;;;;1.6;1;;;;;;;23.22;44.8877;951.5215;;;;
2019/12/11 23:55:26;;;;;;;1.1;1;;;;;;;23.22;44.86328;951.4918;;;;
2019/12/11 23:57:51;;;;;;;1.9;1.1;;;;;;;23.21;44.82715;951.5312;;;;
